sensor_id;sensor_type;location;lat;lon;timestamp;pressure;altitude;pressure_sealevel;temperature;humidity
77877;BME280;67251;50.844;7.978;2023-09-08T00:01:48;99111.66;;;11.51;100.00
77877;BME280;67251;50.844;7.978;2023-09-08T00:04:13;99114.91;;;11.40;100.00
77877;BME280;67251;50.844;7.978;2023-09-08T00:06:40;99116.19;;;11.44;100.00
77877;BME280;67251;50.844;7.978;2023-09-08T00:09:06;99111.19;;;11.34;100.00
77877;BME280;67251;50.844;7.978;2023-09-08T00:11:31;99113.00;;;11.34;100.00
77877;BME280;67251;50.844;7.978;2023-09-08T00:13:56;99114.84;;;11.26;100.00
77877;BME280;67251;50.844;7.978;2023-09-08T00:16:22;99112.75;;;11.15;100.00
77877;BME280;67251;50.844;7.978;2023-09-08T00:18:47;99109.44;;;11.13;100.00
77877;BME280;67251;50.844;7.978;2023-09-08T00:21:13;99112.50;;;11.10;100.00
77877;BME280;67251;50.844;7.978;2023-09-08T00:23:38;99111.63;;;11.03;100.00
77877;BME280;67251;50.844;7.978;2023-09-08T00:26:04;99113.06;;;10.99;100.00
77877;BME280;67251;50.844;7.978;2023-09-08T00:28:29;99105.41;;;10.96;100.00
77877;BME280;67251;50.844;7.978;2023-09-08T00:30:54;99111.56;;;10.90;100.00
77877;BME280;67251;50.844;7.978;2023-09-08T00:33:20;99106.00;;;10.91;100.00
77877;BME280;67251;50.844;7.978;2023-09-08T00:35:50;99114.22;;;10.90;100.00
77877;BME280;67251;50.844;7.978;2023-09-08T00:38:16;99106.41;;;10.88;100.00
77877;BME280;67251;50.844;7.978;2023-09-08T00:40:41;99112.16;;;10.85;100.00
77877;BME280;67251;50.844;7.978;2023-09-08T00:43:07;99107.00;;;10.84;100.00
77877;BME280;67251;50.844;7.978;2023-09-08T00:45:36;99100.22;;;10.88;100.00
77877;BME280;67251;50.844;7.978;2023-09-08T00:48:03;99092.91;;;11.03;100.00
77877;BME280;67251;50.844;7.978;2023-09-08T00:50:29;99103.94;;;11.28;100.00
77877;BME280;67251;50.844;7.978;2023-09-08T00:52:54;99095.28;;;11.26;100.00
77877;BME280;67251;50.844;7.978;2023-09-08T00:55:20;99103.69;;;11.16;100.00
77877;BME280;67251;50.844;7.978;2023-09-08T00:57:45;99096.84;;;11.07;100.00
77877;BME280;67251;50.844;7.978;2023-09-08T01:00:11;99099.28;;;11.02;100.00
77877;BME280;67251;50.844;7.978;2023-09-08T01:02:37;99100.53;;;11.06;100.00
77877;BME280;67251;50.844;7.978;2023-09-08T01:05:02;99101.09;;;10.95;100.00
77877;BME280;67251;50.844;7.978;2023-09-08T01:07:29;99095.63;;;10.82;100.00
77877;BME280;67251;50.844;7.978;2023-09-08T01:09:55;99099.34;;;10.81;100.00
77877;BME280;67251;50.844;7.978;2023-09-08T01:12:21;99100.22;;;10.88;100.00
77877;BME280;67251;50.844;7.978;2023-09-08T01:14:46;99102.91;;;10.88;100.00
77877;BME280;67251;50.844;7.978;2023-09-08T01:17:12;99093.56;;;10.77;100.00
77877;BME280;67251;50.844;7.978;2023-09-08T01:19:38;99102.44;;;10.78;100.00
77877;BME280;67251;50.844;7.978;2023-09-08T01:22:38;99089.78;;;10.65;100.00
77877;BME280;67251;50.844;7.978;2023-09-08T01:25:20;99102.09;;;10.59;100.00
77877;BME280;67251;50.844;7.978;2023-09-08T01:27:50;99107.16;;;10.75;100.00
77877;BME280;67251;50.844;7.978;2023-09-08T01:30:15;99103.84;;;10.73;100.00
77877;BME280;67251;50.844;7.978;2023-09-08T01:32:42;99101.31;;;10.65;100.00
77877;BME280;67251;50.844;7.978;2023-09-08T01:35:09;99098.88;;;10.70;100.00
77877;BME280;67251;50.844;7.978;2023-09-08T01:37:35;99098.72;;;10.79;100.00
77877;BME280;67251;50.844;7.978;2023-09-08T01:40:01;99105.13;;;10.78;100.00
77877;BME280;67251;50.844;7.978;2023-09-08T01:42:26;99100.09;;;10.68;100.00
77877;BME280;67251;50.844;7.978;2023-09-08T01:50:02;99101.34;;;10.44;100.00
77877;BME280;67251;50.844;7.978;2023-09-08T01:52:27;99107.72;;;10.43;100.00
77877;BME280;67251;50.844;7.978;2023-09-08T01:54:52;99101.94;;;10.39;100.00
77877;BME280;67251;50.844;7.978;2023-09-08T01:57:18;99100.59;;;10.50;100.00
77877;BME280;67251;50.844;7.978;2023-09-08T01:59:43;99098.63;;;10.65;100.00
77877;BME280;67251;50.844;7.978;2023-09-08T02:02:10;99108.78;;;10.77;100.00
77877;BME280;67251;50.844;7.978;2023-09-08T02:04:36;99100.50;;;10.65;100.00
77877;BME280;67251;50.844;7.978;2023-09-08T02:07:01;99094.66;;;10.55;100.00
77877;BME280;67251;50.844;7.978;2023-09-08T02:09:36;99100.75;;;10.48;100.00
77877;BME280;67251;50.844;7.978;2023-09-08T02:12:02;99100.34;;;10.45;100.00
77877;BME280;67251;50.844;7.978;2023-09-08T02:14:28;99097.69;;;10.45;100.00
77877;BME280;67251;50.844;7.978;2023-09-08T02:16:54;99096.66;;;10.46;100.00
77877;BME280;67251;50.844;7.978;2023-09-08T02:19:20;99099.84;;;10.35;100.00
77877;BME280;67251;50.844;7.978;2023-09-08T02:21:45;99093.81;;;10.26;100.00
77877;BME280;67251;50.844;7.978;2023-09-08T02:24:11;99091.44;;;10.16;100.00
77877;BME280;67251;50.844;7.978;2023-09-08T02:26:38;99084.03;;;10.18;100.00
77877;BME280;67251;50.844;7.978;2023-09-08T02:29:04;99093.47;;;10.14;100.00
77877;BME280;67251;50.844;7.978;2023-09-08T02:31:29;99086.78;;;10.04;100.00
77877;BME280;67251;50.844;7.978;2023-09-08T02:33:54;99081.31;;;9.90;100.00
77877;BME280;67251;50.844;7.978;2023-09-08T02:36:20;99080.00;;;9.80;100.00
77877;BME280;67251;50.844;7.978;2023-09-08T02:38:55;99079.53;;;9.76;100.00
77877;BME280;67251;50.844;7.978;2023-09-08T02:41:21;99085.09;;;9.75;100.00
77877;BME280;67251;50.844;7.978;2023-09-08T02:43:47;99081.00;;;9.79;100.00
77877;BME280;67251;50.844;7.978;2023-09-08T02:46:13;99088.94;;;9.72;100.00
77877;BME280;67251;50.844;7.978;2023-09-08T02:48:39;99084.44;;;9.72;100.00
77877;BME280;67251;50.844;7.978;2023-09-08T02:51:04;99085.44;;;9.71;100.00
77877;BME280;67251;50.844;7.978;2023-09-08T02:53:30;99081.13;;;9.70;100.00
77877;BME280;67251;50.844;7.978;2023-09-08T02:55:56;99084.44;;;9.72;100.00
77877;BME280;67251;50.844;7.978;2023-09-08T02:58:22;99076.59;;;9.71;100.00
77877;BME280;67251;50.844;7.978;2023-09-08T03:00:47;99082.47;;;9.81;100.00
77877;BME280;67251;50.844;7.978;2023-09-08T03:03:12;99088.88;;;9.87;100.00
77877;BME280;67251;50.844;7.978;2023-09-08T03:05:38;99080.19;;;9.99;100.00
77877;BME280;67251;50.844;7.978;2023-09-08T03:08:03;99082.72;;;10.08;100.00
77877;BME280;67251;50.844;7.978;2023-09-08T03:10:30;99078.56;;;10.05;100.00
77877;BME280;67251;50.844;7.978;2023-09-08T03:12:59;99078.66;;;10.12;100.00
77877;BME280;67251;50.844;7.978;2023-09-08T03:15:25;99085.16;;;10.03;100.00
77877;BME280;67251;50.844;7.978;2023-09-08T03:17:54;99086.66;;;9.90;100.00
77877;BME280;67251;50.844;7.978;2023-09-08T03:20:19;99084.75;;;9.84;100.00
77877;BME280;67251;50.844;7.978;2023-09-08T03:22:45;99080.38;;;9.77;100.00
77877;BME280;67251;50.844;7.978;2023-09-08T03:25:10;99079.09;;;9.72;100.00
77877;BME280;67251;50.844;7.978;2023-09-08T03:27:35;99076.81;;;9.69;100.00
77877;BME280;67251;50.844;7.978;2023-09-08T03:30:01;99073.84;;;9.64;100.00
77877;BME280;67251;50.844;7.978;2023-09-08T03:32:26;99073.22;;;9.62;100.00
77877;BME280;67251;50.844;7.978;2023-09-08T03:34:54;99082.16;;;9.55;100.00
77877;BME280;67251;50.844;7.978;2023-09-08T03:37:19;99076.41;;;9.51;100.00
77877;BME280;67251;50.844;7.978;2023-09-08T03:39:44;99075.75;;;9.49;100.00
77877;BME280;67251;50.844;7.978;2023-09-08T03:42:10;99075.19;;;9.54;100.00
77877;BME280;67251;50.844;7.978;2023-09-08T03:44:35;99075.63;;;9.57;100.00
77877;BME280;67251;50.844;7.978;2023-09-08T03:47:00;99080.34;;;9.55;100.00
77877;BME280;67251;50.844;7.978;2023-09-08T03:49:27;99075.28;;;9.60;100.00
77877;BME280;67251;50.844;7.978;2023-09-08T03:51:53;99069.94;;;9.60;100.00
77877;BME280;67251;50.844;7.978;2023-09-08T03:54:18;99069.00;;;9.53;100.00
77877;BME280;67251;50.844;7.978;2023-09-08T03:56:43;99072.44;;;9.47;100.00
77877;BME280;67251;50.844;7.978;2023-09-08T03:59:09;99074.34;;;9.53;100.00
77877;BME280;67251;50.844;7.978;2023-09-08T04:01:34;99071.78;;;9.60;100.00
77877;BME280;67251;50.844;7.978;2023-09-08T04:03:59;99068.25;;;9.59;100.00
77877;BME280;67251;50.844;7.978;2023-09-08T04:06:25;99068.09;;;9.61;100.00
77877;BME280;67251;50.844;7.978;2023-09-08T04:08:50;99067.66;;;9.79;100.00
77877;BME280;67251;50.844;7.978;2023-09-08T04:11:15;99067.00;;;9.98;100.00
77877;BME280;67251;50.844;7.978;2023-09-08T04:13:41;99066.59;;;10.01;100.00
77877;BME280;67251;50.844;7.978;2023-09-08T04:16:06;99064.19;;;10.06;100.00
77877;BME280;67251;50.844;7.978;2023-09-08T04:18:31;99068.09;;;10.04;100.00
77877;BME280;67251;50.844;7.978;2023-09-08T04:20:57;99075.16;;;9.90;100.00
77877;BME280;67251;50.844;7.978;2023-09-08T04:23:22;99069.78;;;9.68;100.00
77877;BME280;67251;50.844;7.978;2023-09-08T04:25:48;99067.81;;;9.56;100.00
77877;BME280;67251;50.844;7.978;2023-09-08T04:28:13;99068.84;;;9.40;100.00
77877;BME280;67251;50.844;7.978;2023-09-08T04:30:38;99066.03;;;9.27;100.00
77877;BME280;67251;50.844;7.978;2023-09-08T04:33:04;99076.84;;;9.18;100.00
77877;BME280;67251;50.844;7.978;2023-09-08T04:35:29;99075.56;;;9.14;100.00
77877;BME280;67251;50.844;7.978;2023-09-08T04:37:55;99079.88;;;9.15;100.00
77877;BME280;67251;50.844;7.978;2023-09-08T04:40:20;99079.41;;;9.12;100.00
77877;BME280;67251;50.844;7.978;2023-09-08T04:42:45;99080.13;;;9.20;100.00
77877;BME280;67251;50.844;7.978;2023-09-08T04:45:11;99080.34;;;9.19;100.00
77877;BME280;67251;50.844;7.978;2023-09-08T04:47:36;99083.56;;;9.14;100.00
77877;BME280;67251;50.844;7.978;2023-09-08T04:50:02;99083.19;;;9.03;100.00
77877;BME280;67251;50.844;7.978;2023-09-08T04:52:28;99088.09;;;8.99;100.00
77877;BME280;67251;50.844;7.978;2023-09-08T04:54:54;99085.03;;;9.02;100.00
77877;BME280;67251;50.844;7.978;2023-09-08T04:57:19;99076.41;;;9.00;100.00
77877;BME280;67251;50.844;7.978;2023-09-08T04:59:44;99088.09;;;8.99;100.00
77877;BME280;67251;50.844;7.978;2023-09-08T05:02:10;99094.63;;;8.96;100.00
77877;BME280;67251;50.844;7.978;2023-09-08T05:04:35;99096.09;;;8.99;100.00
77877;BME280;67251;50.844;7.978;2023-09-08T05:07:00;99093.97;;;9.09;100.00
77877;BME280;67251;50.844;7.978;2023-09-08T05:09:26;99086.50;;;9.19;100.00
77877;BME280;67251;50.844;7.978;2023-09-08T05:11:51;99092.56;;;9.28;100.00
77877;BME280;67251;50.844;7.978;2023-09-08T05:14:17;99094.78;;;9.25;100.00
77877;BME280;67251;50.844;7.978;2023-09-08T05:16:42;99097.97;;;9.35;100.00
77877;BME280;67251;50.844;7.978;2023-09-08T05:19:12;99097.16;;;9.34;100.00
77877;BME280;67251;50.844;7.978;2023-09-08T05:21:38;99101.03;;;9.32;100.00
77877;BME280;67251;50.844;7.978;2023-09-08T05:24:04;99104.88;;;9.44;100.00
77877;BME280;67251;50.844;7.978;2023-09-08T05:26:29;99105.28;;;9.62;100.00
77877;BME280;67251;50.844;7.978;2023-09-08T05:28:55;99102.97;;;9.74;100.00
77877;BME280;67251;50.844;7.978;2023-09-08T05:31:22;99102.50;;;9.70;100.00
77877;BME280;67251;50.844;7.978;2023-09-08T05:33:48;99114.03;;;9.71;100.00
77877;BME280;67251;50.844;7.978;2023-09-08T05:36:13;99114.38;;;9.68;100.00
77877;BME280;67251;50.844;7.978;2023-09-08T05:38:38;99111.25;;;9.64;100.00
77877;BME280;67251;50.844;7.978;2023-09-08T05:41:04;99121.69;;;9.59;100.00
77877;BME280;67251;50.844;7.978;2023-09-08T05:43:29;99115.97;;;9.62;100.00
77877;BME280;67251;50.844;7.978;2023-09-08T05:45:55;99116.44;;;9.66;100.00
77877;BME280;67251;50.844;7.978;2023-09-08T05:48:20;99115.22;;;9.68;100.00
77877;BME280;67251;50.844;7.978;2023-09-08T05:50:45;99114.03;;;9.71;100.00
77877;BME280;67251;50.844;7.978;2023-09-08T05:53:11;99117.31;;;9.73;100.00
77877;BME280;67251;50.844;7.978;2023-09-08T05:55:36;99122.66;;;9.73;100.00
77877;BME280;67251;50.844;7.978;2023-09-08T05:58:01;99126.03;;;9.82;100.00
77877;BME280;67251;50.844;7.978;2023-09-08T06:00:27;99126.56;;;9.92;100.00
77877;BME280;67251;50.844;7.978;2023-09-08T06:02:52;99128.28;;;9.99;100.00
77877;BME280;67251;50.844;7.978;2023-09-08T06:05:18;99122.19;;;10.06;100.00
77877;BME280;67251;50.844;7.978;2023-09-08T06:07:43;99124.69;;;10.07;100.00
77877;BME280;67251;50.844;7.978;2023-09-08T06:10:09;99127.59;;;10.12;100.00
77877;BME280;67251;50.844;7.978;2023-09-08T06:12:34;99128.59;;;10.26;100.00
77877;BME280;67251;50.844;7.978;2023-09-08T06:15:02;99124.19;;;10.40;100.00
77877;BME280;67251;50.844;7.978;2023-09-08T06:17:28;99121.00;;;10.58;100.00
77877;BME280;67251;50.844;7.978;2023-09-08T06:19:53;99123.44;;;10.81;100.00
77877;BME280;67251;50.844;7.978;2023-09-08T06:22:19;99126.00;;;10.95;100.00
77877;BME280;67251;50.844;7.978;2023-09-08T06:24:44;99121.38;;;11.11;100.00
77877;BME280;67251;50.844;7.978;2023-09-08T06:27:10;99135.22;;;11.21;100.00
77877;BME280;67251;50.844;7.978;2023-09-08T06:29:36;99140.41;;;11.29;100.00
77877;BME280;67251;50.844;7.978;2023-09-08T06:32:02;99131.38;;;11.37;100.00
77877;BME280;67251;50.844;7.978;2023-09-08T06:34:27;99131.84;;;11.47;100.00
77877;BME280;67251;50.844;7.978;2023-09-08T06:36:53;99128.59;;;11.58;100.00
77877;BME280;67251;50.844;7.978;2023-09-08T06:39:18;99129.03;;;11.68;100.00
77877;BME280;67251;50.844;7.978;2023-09-08T06:41:44;99118.53;;;11.80;100.00
77877;BME280;67251;50.844;7.978;2023-09-08T06:44:11;99115.72;;;11.95;100.00
77877;BME280;67251;50.844;7.978;2023-09-08T06:46:37;99116.19;;;12.05;100.00
77877;BME280;67251;50.844;7.978;2023-09-08T06:49:02;99106.69;;;12.16;100.00
77877;BME280;67251;50.844;7.978;2023-09-08T06:51:28;99099.69;;;12.35;100.00
77877;BME280;67251;50.844;7.978;2023-09-08T06:53:57;99103.63;;;12.52;100.00
77877;BME280;67251;50.844;7.978;2023-09-08T06:56:23;99099.75;;;14.09;100.00
77877;BME280;67251;50.844;7.978;2023-09-08T06:58:48;99096.00;;;16.07;100.00
77877;BME280;67251;50.844;7.978;2023-09-08T07:01:14;99096.66;;;16.56;100.00
77877;BME280;67251;50.844;7.978;2023-09-08T07:03:39;99090.56;;;18.67;96.15
77877;BME280;67251;50.844;7.978;2023-09-08T07:06:04;99080.78;;;21.31;74.35
77877;BME280;67251;50.844;7.978;2023-09-08T07:08:30;99077.66;;;23.28;67.67
77877;BME280;67251;50.844;7.978;2023-09-08T07:10:55;99074.41;;;25.41;58.97
77877;BME280;67251;50.844;7.978;2023-09-08T07:13:20;99068.50;;;26.94;49.63
77877;BME280;67251;50.844;7.978;2023-09-08T07:15:46;99071.53;;;27.39;42.54
77877;BME280;67251;50.844;7.978;2023-09-08T07:18:11;99067.63;;;27.54;42.85
77877;BME280;67251;50.844;7.978;2023-09-08T07:20:37;99077.03;;;28.70;41.68
77877;BME280;67251;50.844;7.978;2023-09-08T07:23:02;99063.22;;;29.89;38.70
77877;BME280;67251;50.844;7.978;2023-09-08T07:25:28;99064.72;;;30.94;37.22
77877;BME280;67251;50.844;7.978;2023-09-08T07:27:53;99067.34;;;31.88;35.45
77877;BME280;67251;50.844;7.978;2023-09-08T07:30:19;99063.16;;;32.24;34.88
77877;BME280;67251;50.844;7.978;2023-09-08T07:32:45;99059.72;;;32.60;33.74
77877;BME280;67251;50.844;7.978;2023-09-08T07:35:10;99060.56;;;33.18;32.60
77877;BME280;67251;50.844;7.978;2023-09-08T07:37:40;99064.47;;;33.42;31.99
77877;BME280;67251;50.844;7.978;2023-09-08T07:40:07;99057.06;;;33.70;31.36
77877;BME280;67251;50.844;7.978;2023-09-08T07:42:32;99055.69;;;34.17;29.97
77877;BME280;67251;50.844;7.978;2023-09-08T07:44:58;99056.16;;;34.47;30.07
77877;BME280;67251;50.844;7.978;2023-09-08T07:47:23;99062.16;;;34.93;29.53
77877;BME280;67251;50.844;7.978;2023-09-08T07:49:48;99058.09;;;35.38;29.03
77877;BME280;67251;50.844;7.978;2023-09-08T07:52:14;99060.13;;;35.72;29.11
77877;BME280;67251;50.844;7.978;2023-09-08T07:54:39;99046.47;;;36.22;28.36
77877;BME280;67251;50.844;7.978;2023-09-08T07:57:05;99048.50;;;36.87;27.27
77877;BME280;67251;50.844;7.978;2023-09-08T07:59:30;99056.44;;;37.07;27.05
77877;BME280;67251;50.844;7.978;2023-09-08T08:01:56;99050.94;;;37.11;26.68
77877;BME280;67251;50.844;7.978;2023-09-08T08:04:21;99054.88;;;37.33;26.50
77877;BME280;67251;50.844;7.978;2023-09-08T08:06:46;99051.97;;;37.26;26.48
77877;BME280;67251;50.844;7.978;2023-09-08T08:09:13;99049.88;;;37.19;27.36
77877;BME280;67251;50.844;7.978;2023-09-08T08:11:38;99048.31;;;37.22;27.06
77877;BME280;67251;50.844;7.978;2023-09-08T08:14:04;99041.91;;;37.71;26.26
77877;BME280;67251;50.844;7.978;2023-09-08T08:16:29;99036.13;;;38.17;25.89
77877;BME280;67251;50.844;7.978;2023-09-08T08:18:55;99039.78;;;38.58;24.50
77877;BME280;67251;50.844;7.978;2023-09-08T08:21:20;99032.72;;;38.30;24.13
77877;BME280;67251;50.844;7.978;2023-09-08T08:23:47;99037.50;;;38.00;24.70
77877;BME280;67251;50.844;7.978;2023-09-08T08:26:13;99038.00;;;38.39;24.80
77877;BME280;67251;50.844;7.978;2023-09-08T08:28:38;99037.63;;;38.10;23.93
77877;BME280;67251;50.844;7.978;2023-09-08T08:31:03;99034.50;;;38.16;24.59
77877;BME280;67251;50.844;7.978;2023-09-08T08:33:29;99045.50;;;36.95;25.09
77877;BME280;67251;50.844;7.978;2023-09-08T08:35:56;99035.69;;;36.82;25.45
77877;BME280;67251;50.844;7.978;2023-09-08T08:38:21;99032.16;;;37.08;25.22
77877;BME280;67251;50.844;7.978;2023-09-08T08:40:47;99029.53;;;37.72;24.27
77877;BME280;67251;50.844;7.978;2023-09-08T08:43:12;99027.47;;;38.29;24.20
77877;BME280;67251;50.844;7.978;2023-09-08T08:45:38;99027.16;;;38.34;23.77
77877;BME280;67251;50.844;7.978;2023-09-08T08:48:07;99023.31;;;38.46;23.15
77877;BME280;67251;50.844;7.978;2023-09-08T08:50:35;99024.47;;;38.82;22.94
77877;BME280;67251;50.844;7.978;2023-09-08T08:53:00;99030.88;;;38.12;23.67
77877;BME280;67251;50.844;7.978;2023-09-08T08:55:29;99027.38;;;38.55;22.41
77877;BME280;67251;50.844;7.978;2023-09-08T08:58:00;99028.00;;;37.78;23.26
77877;BME280;67251;50.844;7.978;2023-09-08T09:00:27;99034.41;;;35.28;26.26
77877;BME280;67251;50.844;7.978;2023-09-08T09:02:53;99039.78;;;36.46;25.89
77877;BME280;67251;50.844;7.978;2023-09-08T09:05:19;99033.88;;;37.39;24.43
77877;BME280;67251;50.844;7.978;2023-09-08T09:07:44;99019.94;;;36.70;25.48
77877;BME280;67251;50.844;7.978;2023-09-08T09:10:10;99014.06;;;37.78;23.61
77877;BME280;67251;50.844;7.978;2023-09-08T09:12:37;99017.41;;;36.23;25.81
77877;BME280;67251;50.844;7.978;2023-09-08T09:15:06;99015.38;;;37.57;24.76
77877;BME280;67251;50.844;7.978;2023-09-08T09:17:33;99017.19;;;37.20;24.29
77877;BME280;67251;50.844;7.978;2023-09-08T09:20:13;99020.22;;;36.65;25.05
77877;BME280;67251;50.844;7.978;2023-09-08T09:22:39;99007.91;;;36.89;24.82
77877;BME280;67251;50.844;7.978;2023-09-08T09:25:05;99013.66;;;36.54;25.09
77877;BME280;67251;50.844;7.978;2023-09-08T09:27:33;99008.88;;;37.50;24.39
77877;BME280;67251;50.844;7.978;2023-09-08T09:30:03;99014.31;;;37.96;25.03
77877;BME280;67251;50.844;7.978;2023-09-08T09:32:28;99007.63;;;38.04;24.11
77877;BME280;67251;50.844;7.978;2023-09-08T09:34:55;99007.31;;;38.46;23.20
77877;BME280;67251;50.844;7.978;2023-09-08T09:37:22;99013.34;;;38.15;23.49
77877;BME280;67251;50.844;7.978;2023-09-08T09:39:54;99011.41;;;37.32;24.19
77877;BME280;67251;50.844;7.978;2023-09-08T09:42:21;99001.28;;;37.47;24.58
77877;BME280;67251;50.844;7.978;2023-09-08T09:44:51;98996.81;;;37.72;24.92
77877;BME280;67251;50.844;7.978;2023-09-08T09:47:17;99001.03;;;37.06;24.62
77877;BME280;67251;50.844;7.978;2023-09-08T09:49:47;99002.41;;;36.47;25.94
77877;BME280;67251;50.844;7.978;2023-09-08T09:52:13;98996.16;;;36.53;26.00
77877;BME280;67251;50.844;7.978;2023-09-08T09:54:43;98992.78;;;36.44;25.70
77877;BME280;67251;50.844;7.978;2023-09-08T09:57:13;98995.41;;;36.56;25.83
77877;BME280;67251;50.844;7.978;2023-09-08T09:59:42;98996.00;;;36.27;26.45
77877;BME280;67251;50.844;7.978;2023-09-08T10:02:17;98993.56;;;36.02;26.84
77877;BME280;67251;50.844;7.978;2023-09-08T10:04:47;98991.22;;;36.04;27.21
77877;BME280;67251;50.844;7.978;2023-09-08T10:07:13;98990.44;;;35.88;26.95
77877;BME280;67251;50.844;7.978;2023-09-08T10:09:40;98992.06;;;35.34;27.62
77877;BME280;67251;50.844;7.978;2023-09-08T10:12:06;98989.13;;;35.12;28.16
77877;BME280;67251;50.844;7.978;2023-09-08T10:14:36;98983.81;;;34.91;27.88
77877;BME280;67251;50.844;7.978;2023-09-08T10:17:05;98986.16;;;35.04;28.15
77877;BME280;67251;50.844;7.978;2023-09-08T10:19:31;98985.75;;;35.02;28.23
77877;BME280;67251;50.844;7.978;2023-09-08T10:22:00;98985.28;;;34.69;28.16
77877;BME280;67251;50.844;7.978;2023-09-08T10:24:35;98991.78;;;34.45;28.27
77877;BME280;67251;50.844;7.978;2023-09-08T10:27:09;98987.38;;;34.44;29.30
77877;BME280;67251;50.844;7.978;2023-09-08T10:29:36;98988.09;;;33.32;29.95
77877;BME280;67251;50.844;7.978;2023-09-08T10:32:03;98992.63;;;33.77;29.58
77877;BME280;67251;50.844;7.978;2023-09-08T10:34:30;98985.06;;;33.49;29.78
77877;BME280;67251;50.844;7.978;2023-09-08T10:36:57;98981.72;;;33.56;29.76
77877;BME280;67251;50.844;7.978;2023-09-08T10:39:35;98973.16;;;33.61;30.19
77877;BME280;67251;50.844;7.978;2023-09-08T10:44:57;98977.47;;;32.97;31.17
77877;BME280;67251;50.844;7.978;2023-09-08T10:47:31;98980.69;;;32.87;31.25
77877;BME280;67251;50.844;7.978;2023-09-08T10:49:59;98979.50;;;32.64;31.62
77877;BME280;67251;50.844;7.978;2023-09-08T10:52:25;98976.72;;;32.64;32.16
77877;BME280;67251;50.844;7.978;2023-09-08T10:54:52;98976.63;;;31.73;32.46
77877;BME280;67251;50.844;7.978;2023-09-08T10:57:25;98982.59;;;31.84;33.22
77877;BME280;67251;50.844;7.978;2023-09-08T10:59:55;98976.59;;;32.48;31.75
77877;BME280;67251;50.844;7.978;2023-09-08T11:02:43;98974.22;;;32.71;31.93
77877;BME280;67251;50.844;7.978;2023-09-08T11:05:14;98982.75;;;31.99;31.67
77877;BME280;67251;50.844;7.978;2023-09-08T11:07:44;98976.25;;;31.62;33.03
77877;BME280;67251;50.844;7.978;2023-09-08T11:10:11;98973.63;;;32.20;32.35
77877;BME280;67251;50.844;7.978;2023-09-08T11:12:36;98969.03;;;32.24;31.90
77877;BME280;67251;50.844;7.978;2023-09-08T11:15:03;98972.88;;;30.97;33.22
77877;BME280;67251;50.844;7.978;2023-09-08T11:17:31;98973.72;;;30.42;33.98
77877;BME280;67251;50.844;7.978;2023-09-08T11:19:57;98977.44;;;30.46;34.91
77877;BME280;67251;50.844;7.978;2023-09-08T11:22:24;98967.47;;;30.63;35.08
77877;BME280;67251;50.844;7.978;2023-09-08T11:24:51;98959.34;;;30.66;33.04
77877;BME280;67251;50.844;7.978;2023-09-08T11:27:17;98966.44;;;30.29;34.90
77877;BME280;67251;50.844;7.978;2023-09-08T11:29:44;98965.19;;;30.18;34.91
77877;BME280;67251;50.844;7.978;2023-09-08T11:32:09;98960.75;;;30.34;35.96
77877;BME280;67251;50.844;7.978;2023-09-08T11:34:35;98957.09;;;30.60;36.39
77877;BME280;67251;50.844;7.978;2023-09-08T11:37:11;98958.88;;;30.73;34.19
77877;BME280;67251;50.844;7.978;2023-09-08T11:39:45;98951.06;;;30.66;34.68
77877;BME280;67251;50.844;7.978;2023-09-08T11:42:13;98957.09;;;30.60;34.92
77877;BME280;67251;50.844;7.978;2023-09-08T11:44:40;98967.31;;;30.21;35.13
77877;BME280;67251;50.844;7.978;2023-09-08T11:47:07;98954.94;;;30.01;35.38
77877;BME280;67251;50.844;7.978;2023-09-08T11:49:36;98959.50;;;30.14;35.42
77877;BME280;67251;50.844;7.978;2023-09-08T11:52:03;98961.28;;;30.19;35.10
77877;BME280;67251;50.844;7.978;2023-09-08T11:54:29;98955.09;;;30.31;35.12
77877;BME280;67251;50.844;7.978;2023-09-08T11:56:58;98969.38;;;30.24;34.13
77877;BME280;67251;50.844;7.978;2023-09-08T11:59:25;98958.34;;;30.24;35.05
77877;BME280;67251;50.844;7.978;2023-09-08T12:01:51;98951.81;;;30.37;34.48
77877;BME280;67251;50.844;7.978;2023-09-08T12:04:20;98950.19;;;30.45;34.69
77877;BME280;67251;50.844;7.978;2023-09-08T12:06:46;98955.91;;;30.05;35.41
77877;BME280;67251;50.844;7.978;2023-09-08T12:09:13;98955.44;;;30.12;35.50
77877;BME280;67251;50.844;7.978;2023-09-08T12:11:39;98953.31;;;30.26;34.57
77877;BME280;67251;50.844;7.978;2023-09-08T12:14:08;98948.41;;;30.40;34.14
77877;BME280;67251;50.844;7.978;2023-09-08T12:16:34;98948.41;;;30.40;35.23
77877;BME280;67251;50.844;7.978;2023-09-08T12:19:00;98940.03;;;30.58;35.51
77877;BME280;67251;50.844;7.978;2023-09-08T12:21:26;98933.63;;;30.45;34.69
77877;BME280;67251;50.844;7.978;2023-09-08T12:23:54;98929.44;;;30.13;35.22
77877;BME280;67251;50.844;7.978;2023-09-08T12:26:20;98931.72;;;30.11;35.15
77877;BME280;67251;50.844;7.978;2023-09-08T12:28:46;98928.97;;;30.19;35.80
77877;BME280;67251;50.844;7.978;2023-09-08T12:31:16;98927.19;;;30.23;35.44
77877;BME280;67251;50.844;7.978;2023-09-08T12:33:46;98924.22;;;30.37;34.94
77877;BME280;67251;50.844;7.978;2023-09-08T12:36:15;98929.28;;;30.26;34.55
77877;BME280;67251;50.844;7.978;2023-09-08T12:38:41;98929.28;;;30.09;34.39
77877;BME280;67251;50.844;7.978;2023-09-08T12:41:06;98940.16;;;30.05;35.25
77877;BME280;67251;50.844;7.978;2023-09-08T12:43:32;98937.28;;;29.85;34.98
77877;BME280;67251;50.844;7.978;2023-09-08T12:45:57;98930.34;;;29.78;35.66
77877;BME280;67251;50.844;7.978;2023-09-08T12:48:23;98935.84;;;29.78;34.74
77877;BME280;67251;50.844;7.978;2023-09-08T12:50:48;98928.88;;;29.55;34.85
77877;BME280;67251;50.844;7.978;2023-09-08T12:53:14;98931.91;;;29.45;36.07
77877;BME280;67251;50.844;7.978;2023-09-08T12:55:40;98929.81;;;29.59;35.22
77877;BME280;67251;50.844;7.978;2023-09-08T12:58:05;98930.13;;;29.23;36.11
77877;BME280;67251;50.844;7.978;2023-09-08T13:00:31;98928.84;;;29.46;35.50
77877;BME280;67251;50.844;7.978;2023-09-08T13:02:56;98933.25;;;29.56;35.45